Time;durP1;ratioP1;P1;durP2;ratioP2;P2;SDS_P1;SDS_P2;PMS_P1;PMS_P2;Temp;Humidity;BMP_temperature;BMP_pressure;BME280_temperature;BME280_humidity;BME280_pressure;Samples;Min_cycle;Max_cycle;Signal;HPM_P1;HPM_P2
2022/06/09 00:02:03;;;;;;;2.40;1.70;;;12.80;99.90;;;;;;4992578;28;20180;-61
2022/06/09 00:04:34;;;;;;;1.47;1.37;;;12.80;99.90;;;;;;4976784;28;20670;-61
2022/06/09 00:07:08;;;;;;;1.43;1.33;;;12.80;99.90;;;;;;4980172;28;20424;-62
2022/06/09 00:09:43;;;;;;;1.63;1.40;;;12.80;99.90;;;;;;4992222;28;20945;-61
2022/06/09 00:12:09;;;;;;;1.50;1.40;;;12.80;99.90;;;;;;4987752;28;20443;-62
2022/06/09 00:14:36;;;;;;;1.43;1.20;;;12.80;99.90;;;;;;5001163;28;20431;-61
2022/06/09 00:17:01;;;;;;;2.53;1.50;;;12.80;99.90;;;;;;5012665;28;20176;-61
2022/06/09 00:19:27;;;;;;;2.87;1.60;;;12.80;99.90;;;;;;5012286;28;21178;-61
2022/06/09 00:21:53;;;;;;;2.90;1.60;;;12.80;99.90;;;;;;4990064;28;20639;-61
2022/06/09 00:24:19;;;;;;;3.37;1.60;;;12.80;99.90;;;;;;4991538;28;20260;-61
2022/06/09 00:26:45;;;;;;;1.67;1.57;;;12.80;99.90;;;;;;4993250;28;20937;-62
2022/06/09 00:29:12;;;;;;;4.63;1.70;;;12.80;99.90;;;;;;5004410;28;20490;-61
2022/06/09 00:31:37;;;;;;;1.90;1.80;;;12.80;99.90;;;;;;4995641;28;20173;-62
2022/06/09 00:34:03;;;;;;;1.80;1.67;;;12.80;99.90;;;;;;4997391;28;20539;-61
2022/06/09 00:36:29;;;;;;;2.53;1.50;;;12.80;99.90;;;;;;4999696;28;20181;-62
2022/06/09 00:38:57;;;;;;;3.93;2.23;;;12.80;99.90;;;;;;4990723;28;20197;-62
2022/06/09 00:41:24;;;;;;;2.20;1.50;;;12.80;99.90;;;;;;4989532;28;20193;-61
2022/06/09 00:43:50;;;;;;;4.40;1.50;;;12.80;99.90;;;;;;4992015;28;20797;-61
2022/06/09 00:46:24;;;;;;;1.50;1.40;;;12.80;99.90;;;;;;4991166;28;20431;-63
2022/06/09 00:48:58;;;;;;;3.27;1.50;;;12.80;99.90;;;;;;4991889;28;20953;-61
2022/06/09 00:51:42;;;;;;;1.50;1.40;;;12.90;99.90;;;;;;4997433;28;20432;-62
2022/06/09 00:54:12;;;;;;;1.93;1.23;;;12.90;99.90;;;;;;4995121;28;20442;-61
2022/06/09 00:56:42;;;;;;;1.50;1.40;;;12.80;99.90;;;;;;5000428;28;20429;-61
2022/06/09 00:59:13;;;;;;;1.37;1.27;;;12.90;99.90;;;;;;5005037;28;20998;-61
2022/06/09 01:01:39;;;;;;;1.40;1.30;;;12.90;99.90;;;;;;4984542;28;20428;-62
2022/06/09 01:04:08;;;;;;;4.13;1.40;;;12.80;99.90;;;;;;4991021;28;20400;-62
2022/06/09 01:06:41;;;;;;;2.73;1.27;;;12.90;99.90;;;;;;4986748;28;20424;-61
2022/06/09 01:09:12;;;;;;;1.70;1.60;;;12.90;99.90;;;;;;4989205;28;20789;-61
2022/06/09 01:11:38;;;;;;;2.10;1.40;;;12.90;99.90;;;;;;4995101;28;20506;-61
2022/06/09 01:14:06;;;;;;;2.60;1.30;;;12.90;99.90;;;;;;5004056;28;20908;-61
2022/06/09 01:16:50;;;;;;;1.60;1.50;;;12.90;99.90;;;;;;4996096;28;20792;-61
2022/06/09 01:20:07;;;;;;;1.83;1.60;;;12.90;99.90;;;;;;4986980;28;21139;-61
2022/06/09 01:22:51;;;;;;;1.63;1.50;;;12.80;99.90;;;;;;4972451;28;20529;-61
2022/06/09 01:25:45;;;;;;;4.47;1.83;;;12.80;99.90;;;;;;4989920;28;21004;-61
2022/06/09 01:28:43;;;;;;;1.73;1.63;;;12.80;99.90;;;;;;4986940;28;20451;-61
2022/06/09 01:31:18;;;;;;;1.97;1.50;;;12.80;99.90;;;;;;4994109;28;20436;-62
2022/06/09 01:33:58;;;;;;;2.40;1.73;;;12.80;99.90;;;;;;4985293;28;20439;-61
2022/06/09 01:36:36;;;;;;;1.40;1.30;;;12.80;99.90;;;;;;4995166;28;20506;-61
2022/06/09 01:39:03;;;;;;;2.40;1.40;;;12.80;99.90;;;;;;4989462;28;21123;-61
2022/06/09 01:41:30;;;;;;;2.80;1.70;;;12.80;99.90;;;;;;4986368;28;20518;-61
2022/06/09 01:43:56;;;;;;;2.50;1.83;;;12.80;99.90;;;;;;4989841;28;20412;-61
2022/06/09 01:46:32;;;;;;;1.43;1.33;;;12.80;99.90;;;;;;4984791;28;20515;-61
2022/06/09 01:49:10;;;;;;;2.00;1.50;;;12.80;99.90;;;;;;4997508;28;20535;-62
2022/06/09 01:51:40;;;;;;;1.17;1.17;;;12.80;99.90;;;;;;4992460;28;20419;-62
2022/06/09 01:54:34;;;;;;;2.50;1.50;;;12.80;99.90;;;;;;4990835;28;20440;-61
2022/06/09 01:57:07;;;;;;;1.77;1.67;;;12.80;99.90;;;;;;4988112;28;20439;-62
2022/06/09 01:59:52;;;;;;;1.50;1.40;;;12.80;99.90;;;;;;5000121;28;20522;-61
2022/06/09 02:02:25;;;;;;;3.33;1.20;;;12.80;99.90;;;;;;4989341;28;20437;-61
2022/06/09 02:04:59;;;;;;;3.43;1.60;;;12.70;99.90;;;;;;4970716;28;20778;-61
2022/06/09 02:07:27;;;;;;;1.50;1.40;;;12.70;99.90;;;;;;4988332;28;20447;-61
2022/06/09 02:09:54;;;;;;;3.27;1.40;;;12.70;99.90;;;;;;4990051;28;20491;-61
2022/06/09 02:12:24;;;;;;;2.27;1.70;;;12.80;99.90;;;;;;4989440;28;20487;-61
2022/06/09 02:14:53;;;;;;;1.30;1.20;;;12.80;99.90;;;;;;4991919;28;20435;-61
2022/06/09 02:17:20;;;;;;;1.13;1.13;;;12.80;99.90;;;;;;4999485;28;20435;-62
2022/06/09 02:19:49;;;;;;;2.00;1.47;;;12.80;99.90;;;;;;5002228;28;21008;-61
2022/06/09 02:22:15;;;;;;;1.10;1.00;;;12.80;99.90;;;;;;4988494;28;20435;-61
2022/06/09 02:24:41;;;;;;;1.87;1.40;;;12.80;99.90;;;;;;4988585;28;20486;-61
2022/06/09 02:27:07;;;;;;;1.60;1.50;;;12.80;99.90;;;;;;4987389;28;20849;-61
2022/06/09 02:29:34;;;;;;;1.30;1.20;;;12.80;99.90;;;;;;4991424;28;20193;-62
2022/06/09 02:32:00;;;;;;;1.87;1.33;;;12.80;99.90;;;;;;4993732;28;20432;-61
2022/06/09 02:34:26;;;;;;;1.47;1.37;;;12.80;99.90;;;;;;4993289;28;20494;-61
2022/06/09 02:36:52;;;;;;;1.40;1.30;;;12.80;99.90;;;;;;5003630;28;20415;-61
2022/06/09 02:39:17;;;;;;;1.30;1.20;;;12.80;99.90;;;;;;4985104;28;20221;-61
2022/06/09 02:41:43;;;;;;;2.23;1.20;;;12.80;99.90;;;;;;4985804;28;21369;-62
2022/06/09 02:44:09;;;;;;;1.47;1.37;;;12.80;99.90;;;;;;5003781;28;20181;-62
2022/06/09 02:46:35;;;;;;;1.60;1.27;;;12.80;99.90;;;;;;4992836;28;20185;-61
2022/06/09 02:49:01;;;;;;;1.40;1.30;;;12.80;99.90;;;;;;4974810;28;20452;-61
2022/06/09 02:51:35;;;;;;;2.70;1.20;;;12.80;99.90;;;;;;4980667;28;20203;-61
2022/06/09 02:54:08;;;;;;;3.13;1.47;;;12.80;99.90;;;;;;4991963;28;20208;-61
2022/06/09 02:56:34;;;;;;;1.60;1.50;;;12.80;99.90;;;;;;4991434;28;20428;-62
2022/06/09 02:58:59;;;;;;;1.67;1.57;;;12.80;99.90;;;;;;4997570;28;20458;-62
2022/06/09 03:01:26;;;;;;;5.33;1.60;;;12.70;99.90;;;;;;4991522;28;20260;-61
2022/06/09 03:03:52;;;;;;;1.77;1.50;;;12.70;99.90;;;;;;4993973;28;20185;-61
2022/06/09 03:06:18;;;;;;;1.77;1.60;;;12.70;99.90;;;;;;4991144;28;20424;-61
2022/06/09 03:08:44;;;;;;;1.30;1.20;;;12.70;99.90;;;;;;4994200;28;21275;-61
2022/06/09 03:11:10;;;;;;;2.53;1.40;;;12.60;99.90;;;;;;4977306;28;20621;-61
2022/06/09 03:13:38;;;;;;;1.60;1.50;;;12.60;99.90;;;;;;4990476;28;20181;-61
2022/06/09 03:16:05;;;;;;;1.93;1.70;;;12.60;99.90;;;;;;4996391;28;20414;-61
2022/06/09 03:18:30;;;;;;;3.73;1.53;;;12.60;99.90;;;;;;4993695;28;20487;-61
2022/06/09 03:20:56;;;;;;;3.07;1.80;;;12.60;99.90;;;;;;5013197;28;20494;-60
2022/06/09 03:23:21;;;;;;;3.83;2.50;;;12.60;99.90;;;;;;4992662;28;20183;-61
2022/06/09 03:25:48;;;;;;;2.00;1.80;;;12.50;99.90;;;;;;4993986;28;20276;-61
2022/06/09 03:28:13;;;;;;;1.80;1.70;;;12.50;99.90;;;;;;5000662;28;20283;-60
2022/06/09 03:30:39;;;;;;;5.47;2.03;;;12.50;99.90;;;;;;5001274;28;20447;-60
2022/06/09 03:33:05;;;;;;;4.30;1.37;;;12.50;99.90;;;;;;4993752;28;20185;-62
2022/06/09 03:35:31;;;;;;;1.60;1.50;;;12.40;99.90;;;;;;4992868;28;20189;-62
2022/06/09 03:37:57;;;;;;;1.83;1.50;;;12.40;99.90;;;;;;4992984;28;20460;-61
2022/06/09 03:40:24;;;;;;;4.73;1.93;;;12.40;99.90;;;;;;4991114;28;20752;-62
2022/06/09 03:42:50;;;;;;;2.70;1.60;;;12.40;99.90;;;;;;4993273;28;20180;-62
2022/06/09 03:45:16;;;;;;;3.63;2.13;;;12.30;99.90;;;;;;4991503;28;20467;-62
2022/06/09 03:47:41;;;;;;;1.97;1.67;;;12.30;99.90;;;;;;4991690;28;20484;-60
2022/06/09 03:50:13;;;;;;;4.30;1.97;;;12.30;99.90;;;;;;5001496;28;20219;-60
2022/06/09 03:52:38;;;;;;;1.83;1.60;;;12.30;99.90;;;;;;4998911;28;20193;-60
2022/06/09 03:55:04;;;;;;;2.97;2.07;;;12.30;99.90;;;;;;4986170;28;20492;-60
2022/06/09 03:57:30;;;;;;;3.00;1.80;;;12.30;99.90;;;;;;4989031;28;20185;-60
2022/06/09 03:59:56;;;;;;;2.40;1.60;;;12.30;99.90;;;;;;4977826;28;20469;-61
2022/06/09 04:02:23;;;;;;;1.70;1.60;;;12.40;99.90;;;;;;4990433;28;20801;-60
2022/06/09 04:04:49;;;;;;;2.07;1.90;;;12.40;99.90;;;;;;4981841;28;20539;-62
2022/06/09 04:07:16;;;;;;;2.83;1.83;;;12.40;99.90;;;;;;4985218;28;20437;-55
2022/06/09 04:09:41;;;;;;;3.60;1.70;;;12.40;99.90;;;;;;4980277;28;20428;-64
2022/06/09 04:12:07;;;;;;;3.00;2.30;;;12.40;99.90;;;;;;4985929;28;20444;-62
2022/06/09 04:14:33;;;;;;;2.67;2.40;;;12.40;99.90;;;;;;4987369;28;20182;-62
2022/06/09 04:16:59;;;;;;;2.80;1.70;;;12.40;99.90;;;;;;4997230;28;20436;-63
2022/06/09 04:19:24;;;;;;;2.60;1.70;;;12.40;99.90;;;;;;4985137;28;20231;-62
2022/06/09 04:21:51;;;;;;;4.73;2.00;;;12.40;99.90;;;;;;4988165;28;20177;-62
2022/06/09 04:24:17;;;;;;;2.10;1.60;;;12.40;99.90;;;;;;4984783;28;20189;-61
2022/06/09 04:26:44;;;;;;;5.23;1.97;;;12.40;99.90;;;;;;4987434;28;20990;-62
2022/06/09 04:29:11;;;;;;;2.10;1.60;;;12.40;99.90;;;;;;4983843;28;20534;-62
2022/06/09 04:31:38;;;;;;;3.03;2.17;;;12.40;99.90;;;;;;4989443;28;20490;-63
2022/06/09 04:34:04;;;;;;;4.80;1.80;;;12.40;99.90;;;;;;4986229;28;20832;-62
2022/06/09 04:36:30;;;;;;;5.33;1.70;;;12.40;99.90;;;;;;4984140;28;20437;-63
2022/06/09 04:38:56;;;;;;;5.80;2.20;;;12.40;99.90;;;;;;4984326;28;20200;-63
2022/06/09 04:41:22;;;;;;;3.13;1.93;;;12.40;99.90;;;;;;4984657;28;20698;-61
2022/06/09 04:43:48;;;;;;;2.20;1.70;;;12.40;99.90;;;;;;4984368;28;20185;-62
2022/06/09 04:46:21;;;;;;;4.40;2.00;;;12.40;99.90;;;;;;4984194;28;20424;-63
2022/06/09 04:48:47;;;;;;;4.17;2.00;;;12.40;99.90;;;;;;4991451;28;20550;-62
2022/06/09 04:51:16;;;;;;;7.60;2.00;;;12.50;99.90;;;;;;4991604;28;20574;-62
2022/06/09 04:53:42;;;;;;;4.10;1.70;;;12.50;99.90;;;;;;4996925;28;21086;-62
2022/06/09 04:56:09;;;;;;;6.57;1.90;;;12.50;99.90;;;;;;4986555;28;20769;-62
2022/06/09 04:58:38;;;;;;;4.80;1.93;;;12.50;99.90;;;;;;4984754;28;21053;-62
2022/06/09 05:01:12;;;;;;;1.60;1.50;;;12.60;99.90;;;;;;4984740;28;20471;-64
2022/06/09 05:03:38;;;;;;;2.90;1.87;;;12.60;99.90;;;;;;4981761;28;20446;-64
2022/06/09 05:06:04;;;;;;;5.43;1.93;;;12.60;99.90;;;;;;4986140;28;20819;-63
2022/06/09 05:08:29;;;;;;;1.90;1.70;;;12.80;99.90;;;;;;4987534;28;20236;-63
2022/06/09 05:10:55;;;;;;;4.07;1.93;;;12.80;99.90;;;;;;4990798;28;20258;-64
2022/06/09 05:13:21;;;;;;;4.23;1.80;;;12.80;99.90;;;;;;4990903;28;20260;-63
2022/06/09 05:15:55;;;;;;;3.87;1.73;;;12.90;99.90;;;;;;4988435;28;20181;-63
2022/06/09 05:18:27;;;;;;;1.90;1.17;;;12.80;99.90;;;;;;4988665;28;20197;-63
2022/06/09 05:20:56;;;;;;;5.00;1.40;;;12.80;99.90;;;;;;4990627;28;20460;-64
2022/06/09 05:23:22;;;;;;;1.53;1.20;;;12.70;99.90;;;;;;4988612;28;20447;-64
2022/06/09 05:25:50;;;;;;;1.47;1.23;;;12.60;99.90;;;;;;4988330;28;20432;-63
2022/06/09 05:28:17;;;;;;;4.13;1.40;;;12.60;99.90;;;;;;4989338;28;20463;-64
2022/06/09 05:30:43;;;;;;;2.80;1.40;;;12.60;99.90;;;;;;4988117;28;20443;-63
2022/06/09 05:33:09;;;;;;;3.30;1.80;;;12.70;99.90;;;;;;4987598;28;21568;-63
2022/06/09 05:35:35;;;;;;;4.20;1.40;;;12.70;99.90;;;;;;4997778;28;20247;-63
2022/06/09 05:46:15;;;;;;;2.40;1.57;;;12.70;99.90;;;;;;4981094;28;20439;-63
2022/06/09 05:48:42;;;;;;;5.70;1.47;;;12.80;99.90;;;;;;4995023;28;20456;-63
2022/06/09 05:51:08;;;;;;;1.93;1.30;;;12.80;99.90;;;;;;4994619;28;20440;-63
2022/06/09 05:53:35;;;;;;;2.50;1.70;;;12.80;99.90;;;;;;4989743;28;20432;-64
2022/06/09 05:56:01;;;;;;;2.57;2.13;;;12.80;99.90;;;;;;4991560;28;20472;-64
2022/06/09 05:58:27;;;;;;;2.03;1.60;;;12.80;99.90;;;;;;4992051;28;20503;-63
2022/06/09 06:00:52;;;;;;;3.20;1.53;;;12.90;99.90;;;;;;5001647;28;20208;-63
2022/06/09 06:03:18;;;;;;;1.90;1.30;;;12.90;99.90;;;;;;4992689;28;20677;-63
2022/06/09 06:08:29;;;;;;;2.20;1.63;;;12.90;99.90;;;;;;4993794;28;20467;-63
2022/06/09 06:10:56;;;;;;;2.40;1.50;;;12.90;99.90;;;;;;4990211;28;20432;-63
2022/06/09 06:13:22;;;;;;;1.90;1.57;;;12.90;99.90;;;;;;4987806;28;21126;-64
2022/06/09 06:15:48;;;;;;;4.07;1.67;;;12.90;99.90;;;;;;4987010;28;20531;-63
2022/06/09 06:18:13;;;;;;;4.23;1.77;;;12.90;99.90;;;;;;4989581;28;20544;-64
2022/06/09 06:20:39;;;;;;;2.33;1.50;;;12.90;99.90;;;;;;4986713;28;20666;-64
2022/06/09 06:23:05;;;;;;;8.30;1.70;;;13.00;99.90;;;;;;4999068;28;20176;-64
2022/06/09 06:25:30;;;;;;;2.90;1.50;;;13.00;99.90;;;;;;4983097;28;20177;-64
2022/06/09 06:27:57;;;;;;;3.43;1.70;;;13.00;99.90;;;;;;4985939;28;20225;-64
2022/06/09 06:30:23;;;;;;;6.63;2.07;;;13.00;99.90;;;;;;4985649;28;20268;-64
2022/06/09 06:32:50;;;;;;;7.97;2.07;;;13.00;99.90;;;;;;4988602;28;20843;-64
2022/06/09 06:35:15;;;;;;;10.10;1.90;;;13.00;99.90;;;;;;4988101;28;20187;-65
2022/06/09 06:37:42;;;;;;;4.10;1.53;;;13.00;99.90;;;;;;4986958;28;20830;-64
2022/06/09 06:40:10;;;;;;;3.07;2.00;;;13.00;99.90;;;;;;4990731;28;20580;-63
2022/06/09 06:42:36;;;;;;;5.40;2.03;;;13.10;99.90;;;;;;4988816;28;20435;-63
2022/06/09 06:45:02;;;;;;;7.77;2.40;;;13.10;99.90;;;;;;4995062;28;20439;-63
2022/06/09 06:47:28;;;;;;;6.40;1.87;;;13.10;99.90;;;;;;4986505;28;20189;-63
2022/06/09 06:49:55;;;;;;;8.13;1.63;;;13.00;99.90;;;;;;4983749;28;20481;-65
2022/06/09 06:52:21;;;;;;;4.60;2.10;;;13.00;99.90;;;;;;4987858;28;20498;-64
2022/06/09 06:54:47;;;;;;;1.93;1.40;;;13.00;99.90;;;;;;4987615;28;20431;-64
2022/06/09 06:57:12;;;;;;;7.10;1.60;;;12.90;99.90;;;;;;4982656;28;20448;-63
2022/06/09 06:59:38;;;;;;;9.23;2.37;;;12.90;99.90;;;;;;4989217;28;20216;-64
2022/06/09 07:02:04;;;;;;;3.77;1.80;;;12.90;99.90;;;;;;4982917;28;20659;-64
2022/06/09 07:04:30;;;;;;;2.87;1.60;;;12.90;99.90;;;;;;4986176;28;20174;-64
2022/06/09 07:06:56;;;;;;;2.77;1.70;;;13.00;99.90;;;;;;4992641;28;20327;-64
2022/06/09 07:09:22;;;;;;;9.03;2.37;;;13.00;99.90;;;;;;4986330;28;20224;-64
2022/06/09 07:11:48;;;;;;;2.57;1.80;;;13.10;99.90;;;;;;4986819;28;20435;-65
2022/06/09 07:14:14;;;;;;;4.27;1.80;;;13.10;99.90;;;;;;4992474;28;20180;-64
2022/06/09 07:16:39;;;;;;;3.83;1.90;;;13.20;99.90;;;;;;4995444;28;20210;-65
2022/06/09 07:19:05;;;;;;;3.03;1.67;;;13.40;99.90;;;;;;5001226;28;20567;-64
2022/06/09 07:21:32;;;;;;;10.53;2.07;;;13.50;99.90;;;;;;4995903;28;20643;-64
2022/06/09 07:23:58;;;;;;;2.10;1.70;;;13.60;99.90;;;;;;4995219;28;20427;-64
2022/06/09 07:26:24;;;;;;;4.00;1.70;;;13.70;99.90;;;;;;4990083;28;20436;-64
2022/06/09 07:28:50;;;;;;;7.10;1.73;;;13.80;99.90;;;;;;4999710;28;20451;-64
2022/06/09 07:31:16;;;;;;;7.80;1.77;;;13.80;99.90;;;;;;4986947;28;20436;-63
2022/06/09 07:33:42;;;;;;;6.70;1.90;;;13.90;99.90;;;;;;4996263;28;20193;-64
2022/06/09 07:36:16;;;;;;;3.70;1.60;;;14.00;99.90;;;;;;4998115;28;20268;-64
2022/06/09 07:38:42;;;;;;;6.30;1.83;;;14.20;99.90;;;;;;4988579;28;20288;-64
2022/06/09 07:41:09;;;;;;;4.97;1.60;;;14.30;99.90;;;;;;4991122;28;20456;-65
2022/06/09 07:43:35;;;;;;;4.10;1.63;;;14.50;99.90;;;;;;4996081;28;20432;-65
2022/06/09 07:46:01;;;;;;;2.63;1.50;;;14.50;99.90;;;;;;4982673;28;20434;-64
2022/06/09 07:48:27;;;;;;;2.87;1.60;;;14.30;99.90;;;;;;4999968;28;20458;-64
2022/06/09 07:50:53;;;;;;;4.63;1.90;;;14.20;99.90;;;;;;4987881;28;20201;-64
2022/06/09 07:53:20;;;;;;;9.10;1.53;;;14.20;99.90;;;;;;4982886;28;20440;-65
2022/06/09 07:55:47;;;;;;;4.00;1.57;;;14.30;99.90;;;;;;4998929;28;20184;-64
2022/06/09 07:58:13;;;;;;;6.47;2.20;;;14.40;99.90;;;;;;4990789;28;20448;-64
2022/06/09 08:00:40;;;;;;;2.10;1.10;;;14.50;99.90;;;;;;4992425;28;20859;-64
2022/06/09 08:03:06;;;;;;;4.40;1.30;;;14.50;99.90;;;;;;4988621;28;20530;-64
2022/06/09 08:05:32;;;;;;;2.17;1.40;;;14.60;99.90;;;;;;4983745;28;20954;-64
2022/06/09 08:07:58;;;;;;;3.63;1.57;;;14.80;99.90;;;;;;4984362;28;20213;-62
2022/06/09 08:10:27;;;;;;;2.90;1.87;;;14.90;99.90;;;;;;4988603;28;21119;-64
2022/06/09 08:12:58;;;;;;;8.90;1.87;;;15.00;99.90;;;;;;4993216;28;20443;-64
2022/06/09 08:15:25;;;;;;;4.47;1.63;;;15.10;99.90;;;;;;4986874;28;20446;-63
2022/06/09 08:17:52;;;;;;;4.30;1.50;;;15.20;99.90;;;;;;4993426;28;20832;-64
2022/06/09 08:20:18;;;;;;;6.03;2.20;;;15.20;99.90;;;;;;4995795;28;20510;-63
2022/06/09 08:22:43;;;;;;;4.10;1.70;;;15.30;99.90;;;;;;4999384;28;20436;-64
2022/06/09 08:25:12;;;;;;;3.37;1.60;;;15.50;99.90;;;;;;4990064;28;20435;-64
2022/06/09 08:27:39;;;;;;;4.00;2.00;;;15.70;99.90;;;;;;4992514;28;20681;-64
2022/06/09 08:30:06;;;;;;;9.40;2.00;;;15.70;99.90;;;;;;4988032;28;20436;-64
2022/06/09 08:32:32;;;;;;;3.07;1.20;;;15.80;98.00;;;;;;4996790;28;20531;-65
2022/06/09 08:34:58;;;;;;;5.20;1.67;;;15.70;99.10;;;;;;4997604;28;20912;-64
2022/06/09 08:37:24;;;;;;;4.43;1.60;;;15.70;99.90;;;;;;4994511;28;20437;-64
2022/06/09 08:39:50;;;;;;;3.60;1.90;;;15.60;99.90;;;;;;4989136;28;20223;-64
2022/06/09 08:43:08;;;;;;;3.13;1.93;;;15.40;99.90;;;;;;4991494;28;20934;-65
2022/06/09 08:45:36;;;;;;;6.07;2.03;;;15.20;99.90;;;;;;4927261;28;20189;-64
2022/06/09 08:48:05;;;;;;;3.60;1.83;;;15.00;99.90;;;;;;4989777;28;20452;-64
2022/06/09 08:50:39;;;;;;;5.77;1.77;;;14.70;99.90;;;;;;4988873;28;20455;-65
2022/06/09 08:53:11;;;;;;;4.77;1.50;;;14.50;99.90;;;;;;4992085;28;20427;-65
2022/06/09 08:55:44;;;;;;;2.53;1.60;;;14.30;99.90;;;;;;4983869;28;20600;-64
2022/06/09 08:58:19;;;;;;;4.27;2.13;;;14.10;99.90;;;;;;4984842;28;20456;-64
2022/06/09 09:01:04;;;;;;;3.33;1.50;;;13.80;99.90;;;;;;4983968;28;20474;-64
2022/06/09 09:03:40;;;;;;;2.00;1.80;;;13.70;99.90;;;;;;4990017;28;20779;-65
2022/06/09 09:06:29;;;;;;;1.73;1.63;;;13.60;99.90;;;;;;4985676;28;20436;-64
2022/06/09 09:09:14;;;;;;;1.80;1.60;;;13.50;99.90;;;;;;4992828;28;20490;-65
2022/06/09 09:11:40;;;;;;;5.67;1.90;;;13.40;99.90;;;;;;4990454;28;20520;-64
2022/06/09 09:14:13;;;;;;;1.53;1.43;;;13.40;99.90;;;;;;4987625;28;20515;-64
2022/06/09 09:17:02;;;;;;;3.50;1.60;;;13.50;99.90;;;;;;4990942;28;20869;-65
2022/06/09 09:19:31;;;;;;;10.43;1.50;;;13.50;99.90;;;;;;4990915;28;20607;-64
2022/06/09 09:22:08;;;;;;;3.63;1.73;;;13.50;99.90;;;;;;4989323;28;20444;-64
2022/06/09 09:24:39;;;;;;;1.90;1.60;;;13.60;99.90;;;;;;4988659;28;20895;-64
2022/06/09 09:27:17;;;;;;;2.07;1.40;;;13.80;99.90;;;;;;4988377;28;20445;-63
2022/06/09 09:30:02;;;;;;;1.43;1.33;;;13.90;99.90;;;;;;4988859;28;20440;-64
2022/06/09 09:32:35;;;;;;;3.80;1.97;;;14.20;99.90;;;;;;4985396;28;20455;-63
2022/06/09 09:35:01;;;;;;;2.43;1.50;;;14.50;99.90;;;;;;4988658;28;21020;-64
2022/06/09 09:37:26;;;;;;;6.50;1.90;;;14.80;99.90;;;;;;4995054;28;20470;-64
2022/06/09 09:39:55;;;;;;;3.43;1.70;;;15.10;99.90;;;;;;4992018;28;20459;-64
2022/06/09 09:42:24;;;;;;;7.57;2.10;;;15.50;99.90;;;;;;4985337;28;20200;-64
2022/06/09 09:45:20;;;;;;;1.60;1.20;;;15.90;99.90;;;;;;4986704;28;20960;-64
2022/06/09 09:47:54;;;;;;;2.20;1.57;;;16.20;99.90;;;;;;4988983;28;20551;-65
2022/06/09 09:50:31;;;;;;;3.00;1.40;;;16.40;99.90;;;;;;4985913;28;20439;-60
2022/06/09 09:53:05;;;;;;;8.33;1.67;;;16.40;99.90;;;;;;4977637;28;22775;-64
2022/06/09 09:55:36;;;;;;;4.70;1.67;;;16.40;99.90;;;;;;4985497;28;20954;-64
2022/06/09 09:58:20;;;;;;;7.07;1.50;;;16.30;99.90;;;;;;4992692;28;20460;-64
2022/06/09 10:00:51;;;;;;;4.07;1.47;;;16.00;95.70;;;;;;4988200;28;20485;-64
2022/06/09 10:09:12;;;;;;;4.73;1.63;;;16.40;99.90;;;;;;4986493;28;20478;-64
2022/06/09 10:11:53;;;;;;;3.90;1.70;;;16.50;97.00;;;;;;4986929;28;20972;-66
2022/06/09 10:14:40;;;;;;;4.00;1.40;;;16.70;92.80;;;;;;4995765;28;20430;-65
2022/06/09 10:17:33;;;;;;;7.90;1.90;;;16.80;90.80;;;;;;4986761;28;20980;-64
2022/06/09 10:20:14;;;;;;;3.53;1.27;;;17.10;94.10;;;;;;4983677;28;20479;-66
2022/06/09 10:22:43;;;;;;;3.83;1.43;;;17.20;85.70;;;;;;4990548;28;20525;-65
2022/06/09 10:25:43;;;;;;;5.47;1.70;;;17.30;78.80;;;;;;4986238;28;20515;-65
2022/06/09 10:28:30;;;;;;;3.87;1.53;;;17.40;90.60;;;;;;4997133;28;20432;-64
2022/06/09 10:31:07;;;;;;;6.40;1.43;;;17.60;92.10;;;;;;4985893;28;20420;-65
2022/06/09 10:33:40;;;;;;;4.60;1.50;;;17.80;83.20;;;;;;4984014;28;20443;-65
2022/06/09 10:36:15;;;;;;;8.80;1.60;;;18.10;79.60;;;;;;4985049;28;20936;-61
2022/06/09 10:38:47;;;;;;;4.90;1.40;;;18.30;71.30;;;;;;4980738;28;20479;-65
2022/06/09 10:41:19;;;;;;;5.33;1.50;;;18.10;64.10;;;;;;4980832;28;20460;-64
2022/06/09 10:44:01;;;;;;;4.20;1.50;;;17.80;66.20;;;;;;4981069;28;20439;-62
2022/06/09 10:55:14;;;;;;;5.30;1.70;;;17.50;68.10;;;;;;4983828;28;20420;-63
2022/06/09 10:56:04;;;;;;;5.67;1.63;;;16.90;71.60;;;;;;4980657;28;20463;-62
2022/06/09 10:58:46;;;;;;;5.00;1.43;;;17.40;72.60;;;;;;4984631;28;20473;-62
2022/06/09 11:01:27;;;;;;;3.50;1.40;;;17.90;76.70;;;;;;4982864;28;20463;-62
2022/06/09 11:03:53;;;;;;;5.63;1.40;;;18.10;73.60;;;;;;4981494;28;20436;-62
2022/06/09 11:06:28;;;;;;;4.43;1.40;;;18.20;67.10;;;;;;4983716;28;20436;-63
2022/06/09 11:08:59;;;;;;;4.80;1.40;;;18.20;70.90;;;;;;4986450;28;20716;-64
2022/06/09 11:11:34;;;;;;;1.73;0.97;;;18.20;75.80;;;;;;4983893;28;20478;-62
2022/06/09 11:14:13;;;;;;;3.60;1.50;;;18.40;76.70;;;;;;4986321;28;20551;-63
2022/06/09 11:16:58;;;;;;;4.57;1.33;;;18.70;81.40;;;;;;4983910;28;20500;-65
2022/06/09 11:19:54;;;;;;;4.53;1.27;;;19.00;81.70;;;;;;4985060;28;20541;-65
2022/06/09 11:22:46;;;;;;;2.93;1.10;;;19.20;71.90;;;;;;4981485;28;20532;-62
2022/06/09 11:25:14;;;;;;;3.17;1.03;;;19.30;60.90;;;;;;4982544;28;20450;-62
2022/06/09 11:28:03;;;;;;;2.93;1.00;;;19.40;62.30;;;;;;4983396;28;20834;-61
2022/06/09 11:30:45;;;;;;;1.20;0.87;;;19.50;60.00;;;;;;4996226;28;20472;-63
2022/06/09 11:33:25;;;;;;;1.93;1.00;;;19.60;56.40;;;;;;4982530;28;20441;-62
2022/06/09 11:36:23;;;;;;;2.00;0.93;;;19.70;59.90;;;;;;4985510;28;20518;-62
2022/06/09 11:38:52;;;;;;;3.47;1.77;;;19.80;57.50;;;;;;4979036;28;20601;-63
2022/06/09 11:41:54;;;;;;;3.07;1.30;;;19.60;54.50;;;;;;4979054;28;21023;-63
2022/06/09 11:44:29;;;;;;;3.23;1.20;;;19.10;52.40;;;;;;4983277;28;20464;-63
2022/06/09 11:47:00;;;;;;;6.30;1.50;;;18.60;54.50;;;;;;4980427;28;20462;-62
2022/06/09 11:49:39;;;;;;;1.87;1.20;;;18.30;54.60;;;;;;4986903;28;20511;-62
2022/06/09 11:52:10;;;;;;;1.43;1.10;;;17.90;54.90;;;;;;4983061;28;20436;-63
2022/06/09 11:54:41;;;;;;;4.47;1.20;;;17.50;55.10;;;;;;4985181;28;20459;-63
2022/06/09 11:57:16;;;;;;;3.43;1.40;;;17.20;57.10;;;;;;4984984;28;20518;-62
2022/06/09 12:00:03;;;;;;;1.70;1.20;;;17.00;59.10;;;;;;4984317;28;20566;-63
2022/06/09 12:02:28;;;;;;;6.43;2.20;;;16.90;60.90;;;;;;4982821;28;20432;-62
2022/06/09 12:05:22;;;;;;;5.13;1.47;;;16.80;59.60;;;;;;4982405;28;20424;-62
2022/06/09 12:08:15;;;;;;;5.90;1.70;;;16.90;62.80;;;;;;4987178;28;20292;-63
2022/06/09 12:11:02;;;;;;;3.50;1.70;;;17.10;65.30;;;;;;4984160;28;20864;-62
2022/06/09 12:13:38;;;;;;;7.50;1.63;;;17.30;58.10;;;;;;4982425;28;20941;-62
2022/06/09 12:16:20;;;;;;;5.03;1.57;;;17.60;59.20;;;;;;4984982;28;20458;-62
2022/06/09 12:18:57;;;;;;;3.63;1.50;;;17.80;56.50;;;;;;4982285;28;20456;-63
2022/06/09 12:21:36;;;;;;;3.17;1.60;;;17.70;55.40;;;;;;4981412;28;20906;-63
2022/06/09 12:24:14;;;;;;;1.93;1.17;;;17.50;56.00;;;;;;4983756;28;20442;-63
2022/06/09 12:26:39;;;;;;;5.67;1.40;;;17.30;57.20;;;;;;4982392;28;20487;-63
2022/06/09 12:29:40;;;;;;;7.37;1.60;;;17.40;59.60;;;;;;4984097;28;21148;-63
2022/06/09 12:32:09;;;;;;;3.60;1.40;;;17.50;60.90;;;;;;4984297;28;20185;-63
2022/06/09 12:34:43;;;;;;;2.70;1.73;;;17.60;58.70;;;;;;4984497;28;20425;-62
2022/06/09 12:37:30;;;;;;;5.43;1.50;;;17.50;57.00;;;;;;4983578;28;20436;-62
2022/06/09 12:40:12;;;;;;;2.17;1.40;;;17.30;58.30;;;;;;4983281;28;21727;-62
2022/06/09 12:42:49;;;;;;;4.80;1.47;;;17.20;57.10;;;;;;4981999;28;20431;-62
2022/06/09 12:45:27;;;;;;;3.63;1.50;;;17.00;57.50;;;;;;4983513;28;20467;-61
2022/06/09 12:47:59;;;;;;;4.80;1.70;;;17.20;60.10;;;;;;4985115;28;20469;-62
2022/06/09 12:50:37;;;;;;;4.63;1.80;;;17.70;61.30;;;;;;4984101;28;20438;-62
2022/06/09 12:53:06;;;;;;;6.77;1.47;;;18.20;58.10;;;;;;4982819;28;21015;-62
2022/06/09 12:55:36;;;;;;;6.10;1.53;;;18.40;56.60;;;;;;4982085;28;20977;-62
2022/06/09 12:58:18;;;;;;;5.70;1.50;;;18.30;56.50;;;;;;4983614;28;20454;-62
2022/06/09 13:00:59;;;;;;;1.50;1.40;;;18.10;55.80;;;;;;4983941;28;20463;-61
2022/06/09 13:03:27;;;;;;;3.23;1.33;;;17.80;55.50;;;;;;4980929;28;20416;-63
2022/06/09 13:05:53;;;;;;;4.13;1.40;;;17.60;56.50;;;;;;4982895;28;21044;-62
2022/06/09 13:08:27;;;;;;;10.50;1.87;;;17.50;56.90;;;;;;4983847;28;20688;-63
2022/06/09 13:11:05;;;;;;;2.63;1.57;;;17.50;55.40;;;;;;4982398;28;20441;-62
2022/06/09 13:13:39;;;;;;;4.60;1.43;;;17.60;55.90;;;;;;4985901;28;20424;-61
2022/06/09 13:16:20;;;;;;;2.87;1.30;;;17.80;55.70;;;;;;4983159;28;20436;-61
2022/06/09 13:18:54;;;;;;;6.77;1.67;;;18.00;56.30;;;;;;4977466;28;20507;-62
2022/06/09 13:21:24;;;;;;;6.60;1.37;;;18.50;59.70;;;;;;4982782;28;20983;-61
2022/06/09 13:23:56;;;;;;;4.40;1.33;;;19.10;57.10;;;;;;4976106;28;20444;-61
2022/06/09 13:26:32;;;;;;;11.33;1.80;;;19.70;53.20;;;;;;4980111;28;20503;-61
2022/06/09 13:29:00;;;;;;;1.93;1.40;;;19.90;52.70;;;;;;4986776;28;20447;-61
2022/06/09 13:31:33;;;;;;;1.63;1.10;;;19.80;50.40;;;;;;4983489;28;20424;-60